createdAt,value
2018-09-24T00:00:31.236Z,11.00
2018-09-24T00:03:06.389Z,10.79
2018-09-24T00:05:41.072Z,10.81
2018-09-24T00:08:15.758Z,10.80
2018-09-24T00:10:50.302Z,10.75
2018-09-24T00:13:24.874Z,10.48
2018-09-24T00:15:59.877Z,10.43
2018-09-24T00:18:34.669Z,10.40
2018-09-24T00:21:09.336Z,10.47
2018-09-24T00:23:44.492Z,10.55
2018-09-24T00:26:19.218Z,10.51
2018-09-24T00:28:54.272Z,10.53
2018-09-24T00:31:28.769Z,10.54
2018-09-24T00:34:03.967Z,10.56
2018-09-24T00:36:39.170Z,10.65
2018-09-24T00:39:13.806Z,10.63
2018-09-24T00:41:48.907Z,10.64
2018-09-24T00:44:23.625Z,10.48
2018-09-24T00:46:58.337Z,10.50
2018-09-24T00:49:32.907Z,10.46
2018-09-24T00:52:07.803Z,10.39
2018-09-24T00:54:42.763Z,10.45
2018-09-24T00:57:17.554Z,10.39
2018-09-24T00:59:52.689Z,10.35
2018-09-24T01:02:27.240Z,10.15
2018-09-24T01:05:01.787Z,9.99
2018-09-24T01:07:37.382Z,9.82
2018-09-24T01:10:12.313Z,9.90
2018-09-24T01:12:47.222Z,9.93
2018-09-24T01:15:22.052Z,9.99
2018-09-24T01:17:56.649Z,9.99
2018-09-24T01:20:31.361Z,10.02
2018-09-24T01:23:06.230Z,9.94
2018-09-24T01:25:40.918Z,9.98
2018-09-24T01:28:16.562Z,9.94
2018-09-24T01:30:51.036Z,9.83
2018-09-24T01:33:25.599Z,9.77
2018-09-24T01:36:00.181Z,9.83
2018-09-24T01:38:34.697Z,9.87
2018-09-24T01:41:09.403Z,9.88
2018-09-24T01:43:44.090Z,10.00
2018-09-24T01:46:18.420Z,9.95
2018-09-24T01:48:52.953Z,9.84
2018-09-24T01:51:35.240Z,9.81
2018-09-24T01:54:09.796Z,9.83
2018-09-24T01:56:44.305Z,9.85
2018-09-24T01:59:19.093Z,9.73
2018-09-24T02:01:53.454Z,9.76
2018-09-24T02:04:28.243Z,9.81
2018-09-24T02:07:02.649Z,9.75
2018-09-24T02:09:37.091Z,9.76
2018-09-24T02:12:12.074Z,9.75
2018-09-24T02:14:47.045Z,9.72
2018-09-24T02:17:26.423Z,9.61
2018-09-24T02:20:01.309Z,9.46
2018-09-24T02:22:35.872Z,9.30
2018-09-24T02:25:10.800Z,9.23
2018-09-24T02:27:45.261Z,9.26
2018-09-24T02:30:20.785Z,9.22
2018-09-24T02:32:55.344Z,9.20
2018-09-24T02:35:29.824Z,9.25
2018-09-24T02:38:04.365Z,9.27
2018-09-24T02:40:38.944Z,9.11
2018-09-24T02:43:14.028Z,9.29
2018-09-24T02:45:48.548Z,9.41
2018-09-24T02:48:23.660Z,9.35
2018-09-24T02:50:58.220Z,9.48
2018-09-24T02:53:39.579Z,9.47
2018-09-24T02:56:14.573Z,9.33
2018-09-24T02:58:48.882Z,9.17
2018-09-24T03:01:23.300Z,9.07
2018-09-24T03:03:58.352Z,8.95
2018-09-24T03:06:34.197Z,8.88
2018-09-24T03:09:13.965Z,8.83
2018-09-24T03:11:48.617Z,8.88
2018-09-24T03:14:27.109Z,8.96
2018-09-24T03:17:01.593Z,8.95
2018-09-24T03:19:36.116Z,8.91
2018-09-24T03:22:10.985Z,8.81
2018-09-24T03:24:45.462Z,8.82
2018-09-24T03:27:20.614Z,8.83
2018-09-24T03:29:55.012Z,8.79
2018-09-24T03:32:29.377Z,8.75
2018-09-24T03:35:04.584Z,8.80
2018-09-24T03:37:39.616Z,8.88
2018-09-24T03:40:14.775Z,8.88
2018-09-24T03:42:49.551Z,8.88
2018-09-24T03:45:23.969Z,8.87
2018-09-24T03:47:59.727Z,8.87
2018-09-24T03:50:35.230Z,8.81
2018-09-24T03:53:09.800Z,8.94
2018-09-24T03:55:47.494Z,8.85
2018-09-24T03:58:22.960Z,8.95
2018-09-24T04:00:57.364Z,8.94
2018-09-24T04:03:31.927Z,8.98
2018-09-24T04:06:11.565Z,8.87
2018-09-24T04:08:51.671Z,8.87
2018-09-24T04:11:32.126Z,8.82
2018-09-24T04:14:12.002Z,8.90
2018-09-24T04:16:51.777Z,8.93
2018-09-24T04:19:32.267Z,8.80
2018-09-24T04:22:12.260Z,8.67
2018-09-24T04:24:52.705Z,8.74
2018-09-24T04:27:39.752Z,8.60
2018-09-24T04:30:19.732Z,8.59
2018-09-24T04:32:59.667Z,8.55
2018-09-24T04:35:39.865Z,8.54
2018-09-24T04:38:19.681Z,8.50
2018-09-24T04:40:59.941Z,8.31
2018-09-24T04:43:39.746Z,8.35
2018-09-24T04:46:29.505Z,8.30
2018-09-24T04:49:09.601Z,8.37
2018-09-24T04:51:49.851Z,8.45
2018-09-24T04:54:29.647Z,8.41
2018-09-24T04:57:09.989Z,8.43
2018-09-24T04:59:49.821Z,8.54
2018-09-24T05:02:30.115Z,8.49
2018-09-24T05:05:10.488Z,8.54
2018-09-24T05:07:50.601Z,8.42
2018-09-24T05:10:31.405Z,8.49
2018-09-24T05:13:14.452Z,8.50
2018-09-24T05:15:54.247Z,8.59
2018-09-24T05:18:34.489Z,8.69
2018-09-24T05:21:14.530Z,8.58
2018-09-24T05:23:54.132Z,8.43
2018-09-24T05:26:33.948Z,8.42
2018-09-24T05:29:13.516Z,8.45
2018-09-24T05:31:53.369Z,8.26
2018-09-24T05:34:33.787Z,8.28
2018-09-24T05:37:13.922Z,8.43
2018-09-24T05:39:54.275Z,8.56
2018-09-24T05:42:34.225Z,8.53
2018-09-24T05:45:14.137Z,8.63
2018-09-24T05:47:54.286Z,8.74
2018-09-24T05:50:34.164Z,8.73
2018-09-24T05:53:13.948Z,8.64
2018-09-24T05:55:54.374Z,8.75
2018-09-24T05:58:34.273Z,8.82
2018-09-24T06:01:14.431Z,8.90
2018-09-24T06:03:54.444Z,8.87
2018-09-24T06:06:34.293Z,8.81
2018-09-24T06:09:14.370Z,8.65
2018-09-24T06:11:54.719Z,8.74
2018-09-24T06:14:34.593Z,9.04
2018-09-24T06:17:14.427Z,9.13
2018-09-24T06:19:54.149Z,9.05
2018-09-24T06:22:33.952Z,9.09
2018-09-24T06:25:13.768Z,9.06
2018-09-24T06:27:53.748Z,9.24
2018-09-24T06:30:33.831Z,9.15
2018-09-24T06:33:13.710Z,9.20
2018-09-24T06:35:53.621Z,9.20
2018-09-24T06:38:33.504Z,8.98
2018-09-24T06:41:13.149Z,9.02
2018-09-24T06:43:53.455Z,9.04
2018-09-24T06:46:34.103Z,8.82
2018-09-24T06:49:14.004Z,8.84
2018-09-24T06:51:54.224Z,8.88
2018-09-24T06:54:34.072Z,9.17
2018-09-24T06:57:14.297Z,9.40
2018-09-24T06:59:53.898Z,9.52
2018-09-24T07:02:33.624Z,9.53
2018-09-24T07:05:13.509Z,9.43
2018-09-24T07:07:53.323Z,9.44
2018-09-24T07:10:33.516Z,9.39
2018-09-24T07:13:13.355Z,9.35
2018-09-24T07:15:53.146Z,9.25
2018-09-24T07:18:33.228Z,9.13
2018-09-24T07:21:13.157Z,9.16
2018-09-24T07:23:53.053Z,9.21
2018-09-24T07:26:33.164Z,9.42
2018-09-24T07:29:13.052Z,9.57
2018-09-24T07:31:52.688Z,9.63
2018-09-24T07:34:32.309Z,9.69
2018-09-24T07:37:12.572Z,9.79
2018-09-24T07:39:52.368Z,10.14
2018-09-24T07:42:32.504Z,10.30
2018-09-24T07:45:12.673Z,10.44
2018-09-24T07:47:52.619Z,10.13
2018-09-24T07:50:32.526Z,9.94
2018-09-24T07:53:12.353Z,10.07
2018-09-24T07:55:52.204Z,10.12
2018-09-24T07:58:32.224Z,10.14
2018-09-24T08:01:12.417Z,10.18
2018-09-24T08:03:52.677Z,10.31
2018-09-24T08:06:33.035Z,10.23
2018-09-24T08:09:13.128Z,10.09
2018-09-24T08:11:52.930Z,10.23
2018-09-24T08:14:32.868Z,10.68
2018-09-24T08:17:12.681Z,10.96
2018-09-24T08:19:52.517Z,10.83
2018-09-24T08:22:32.452Z,10.51
2018-09-24T08:25:12.365Z,10.47
2018-09-24T08:27:52.451Z,10.47
2018-09-24T08:30:32.427Z,10.27
2018-09-24T08:33:12.664Z,10.53
2018-09-24T08:35:52.912Z,10.87
2018-09-24T08:38:32.857Z,11.23
2018-09-24T08:41:12.582Z,11.30
2018-09-24T08:43:52.580Z,11.41
2018-09-24T08:46:32.618Z,11.28
2018-09-24T08:49:13.232Z,11.16
2018-09-24T08:51:53.048Z,11.20
2018-09-24T08:54:32.868Z,11.41
2018-09-24T08:57:13.597Z,11.82
2018-09-24T08:59:53.553Z,12.12
2018-09-24T09:02:34.021Z,11.29
2018-09-24T09:05:14.109Z,10.90
2018-09-24T09:07:53.942Z,10.51
2018-09-24T09:10:33.791Z,10.83
2018-09-24T09:13:13.628Z,11.22
2018-09-24T09:15:53.485Z,11.31
2018-09-24T09:18:33.278Z,11.28
2018-09-24T09:21:13.020Z,10.98
2018-09-24T09:23:53.274Z,10.66
2018-09-24T09:26:33.375Z,10.58
2018-09-24T09:29:13.216Z,11.17
2018-09-24T09:31:53.698Z,11.49
2018-09-24T09:34:33.909Z,11.73
2018-09-24T09:37:13.934Z,11.78
2018-09-24T09:39:53.639Z,11.84
2018-09-24T09:42:33.320Z,12.25
2018-09-24T09:45:13.746Z,12.05
2018-09-24T09:47:53.687Z,12.01
2018-09-24T09:50:33.655Z,12.55
2018-09-24T09:53:13.746Z,13.06
2018-09-24T09:55:53.552Z,12.93
2018-09-24T09:58:34.201Z,13.20
2018-09-24T10:01:14.294Z,13.20
2018-09-24T10:03:54.135Z,13.66
2018-09-24T10:06:34.058Z,13.75
2018-09-24T10:09:14.360Z,13.38
2018-09-24T10:11:54.259Z,12.91
2018-09-24T10:14:34.324Z,12.96
2018-09-24T10:17:14.265Z,13.24
2018-09-24T10:19:53.915Z,14.13
2018-09-24T10:22:33.683Z,14.48
2018-09-24T10:25:14.081Z,14.25
2018-09-24T10:27:54.006Z,14.09
2018-09-24T10:30:33.922Z,13.00
2018-09-24T10:33:13.602Z,12.32
2018-09-24T10:35:53.789Z,11.96
2018-09-24T10:38:33.687Z,11.78
2018-09-24T10:41:13.645Z,11.71
2018-09-24T10:43:53.788Z,11.77
2018-09-24T10:46:33.625Z,11.86
2018-09-24T10:49:13.389Z,12.16
2018-09-24T10:51:53.589Z,12.48
2018-09-24T10:54:33.072Z,13.19
2018-09-24T10:57:13.212Z,12.88
2018-09-24T10:59:53.074Z,13.09
2018-09-24T11:02:33.062Z,13.48
2018-09-24T11:05:13.364Z,14.03
2018-09-24T11:07:53.130Z,13.72
2018-09-24T11:10:32.940Z,13.78
2018-09-24T11:13:13.305Z,13.67
2018-09-24T11:15:53.564Z,13.32
2018-09-24T11:18:33.619Z,12.67
2018-09-24T11:21:13.689Z,12.41
2018-09-24T11:23:53.739Z,13.11
2018-09-24T11:29:12.953Z,14.37
2018-09-24T11:31:52.928Z,14.85
2018-09-24T11:34:32.704Z,15.36
2018-09-24T11:37:12.541Z,14.90
2018-09-24T11:39:52.281Z,13.99
2018-09-24T11:42:32.243Z,13.56
2018-09-24T11:45:12.595Z,13.20
2018-09-24T11:47:52.892Z,14.01
2018-09-24T11:50:32.547Z,14.00
2018-09-24T11:53:12.513Z,14.21
2018-09-24T11:55:52.336Z,14.54
2018-09-24T11:58:32.614Z,14.80
2018-09-24T12:01:12.733Z,15.66
2018-09-24T12:03:52.766Z,16.07
2018-09-24T12:06:33.017Z,15.77
2018-09-24T12:09:14.504Z,15.27
2018-09-24T12:11:54.293Z,14.65
2018-09-24T12:14:33.971Z,15.10
2018-09-24T12:17:13.907Z,15.56
2018-09-24T12:19:54.053Z,15.52
2018-09-24T12:22:33.889Z,15.10
2018-09-24T12:25:13.180Z,15.07
2018-09-24T12:27:52.965Z,14.93
2018-09-24T12:30:32.517Z,15.01
2018-09-24T12:33:12.553Z,14.81
2018-09-24T12:35:52.220Z,14.71
2018-09-24T12:38:32.283Z,14.26
2018-09-24T12:41:12.743Z,14.33
2018-09-24T12:44:00.640Z,14.05
2018-09-24T12:46:40.376Z,13.79
2018-09-24T12:49:20.036Z,13.80
2018-09-24T12:51:59.828Z,13.89
2018-09-24T12:54:39.736Z,13.52
2018-09-24T12:57:19.413Z,13.67
2018-09-24T12:59:59.166Z,14.40
2018-09-24T13:02:39.352Z,15.06
2018-09-24T13:05:19.291Z,15.04
2018-09-24T13:07:59.165Z,15.15
2018-09-24T13:10:39.416Z,14.94
2018-09-24T13:13:19.424Z,14.85
2018-09-24T13:15:59.316Z,15.06
2018-09-24T13:18:39.197Z,15.43
2018-09-24T13:21:18.884Z,16.04
2018-09-24T13:23:59.036Z,15.55
2018-09-24T13:26:38.711Z,14.65
2018-09-24T13:29:18.362Z,14.82
2018-09-24T13:31:58.208Z,14.80
2018-09-24T13:34:37.980Z,14.70
2018-09-24T13:37:17.996Z,14.11
2018-09-24T13:39:58.285Z,14.08
2018-09-24T13:42:38.164Z,14.16
2018-09-24T13:45:18.167Z,14.16
2018-09-24T13:47:58.065Z,14.02
2018-09-24T13:50:37.713Z,13.88
2018-09-24T13:53:17.364Z,13.79
2018-09-24T13:55:57.572Z,13.66
2018-09-24T13:58:37.480Z,13.52
2018-09-24T14:01:17.412Z,13.72
2018-09-24T14:03:57.552Z,14.38
2018-09-24T14:06:37.748Z,14.70
2018-09-24T14:09:17.868Z,15.35
2018-09-24T14:11:57.649Z,15.75
2018-09-24T14:14:37.741Z,15.83
2018-09-24T14:17:18.011Z,15.83
2018-09-24T14:19:57.732Z,16.35
2018-09-24T14:22:37.667Z,16.63
2018-09-24T14:25:17.705Z,17.20
2018-09-24T14:27:57.556Z,17.07
2018-09-24T14:30:37.959Z,16.63
2018-09-24T14:33:18.055Z,16.73
2018-09-24T14:35:57.881Z,16.77
2018-09-24T14:38:37.599Z,16.95
2018-09-24T14:41:17.720Z,16.75
2018-09-24T14:43:57.324Z,16.65
2018-09-24T14:46:37.484Z,16.55
2018-09-24T14:49:17.542Z,16.32
2018-09-24T14:51:57.419Z,16.48
2018-09-24T14:54:37.220Z,16.56
2018-09-24T14:57:17.084Z,15.93
2018-09-24T14:59:57.121Z,15.62
2018-09-24T15:02:36.854Z,15.38
2018-09-24T15:05:16.492Z,15.41
2018-09-24T15:07:56.563Z,15.64
2018-09-24T15:10:36.437Z,15.44
2018-09-24T15:13:16.893Z,15.19
2018-09-24T15:15:56.837Z,14.88
2018-09-24T15:18:36.531Z,14.92
2018-09-24T15:21:16.545Z,14.83
2018-09-24T15:23:56.361Z,14.51
2018-09-24T15:26:40.920Z,14.29
2018-09-24T15:29:20.520Z,14.18
2018-09-24T15:32:00.652Z,14.03
2018-09-24T15:34:40.433Z,13.79
2018-09-24T15:37:20.259Z,13.56
2018-09-24T15:40:00.241Z,13.41
2018-09-24T15:42:39.971Z,13.18
2018-09-24T15:45:19.904Z,13.04
2018-09-24T15:48:00.102Z,12.79
2018-09-24T15:50:39.996Z,12.69
2018-09-24T15:53:21.759Z,12.74
2018-09-24T15:56:01.933Z,12.86
2018-09-24T15:58:41.621Z,12.97
2018-09-24T16:01:21.384Z,13.05
2018-09-24T16:04:01.176Z,13.08
2018-09-24T16:06:40.915Z,13.13
2018-09-24T16:09:20.680Z,13.02
2018-09-24T16:12:01.324Z,12.85
2018-09-24T16:14:41.336Z,12.70
2018-09-24T16:17:21.404Z,12.58
2018-09-24T16:20:01.478Z,12.48
2018-09-24T16:22:41.999Z,12.28
2018-09-24T16:25:31.503Z,12.26
2018-09-24T16:28:11.712Z,12.23
2018-09-24T16:30:52.040Z,12.16
2018-09-24T16:33:31.951Z,12.14
2018-09-24T16:36:11.948Z,12.02
2018-09-24T16:38:51.828Z,12.02
2018-09-24T16:41:31.599Z,11.94
2018-09-24T16:44:12.011Z,11.87
2018-09-24T16:46:51.820Z,11.77
2018-09-24T16:49:31.667Z,11.81
2018-09-24T16:52:11.725Z,11.71
2018-09-24T16:54:52.119Z,11.81
2018-09-24T16:57:31.838Z,11.68
2018-09-24T17:00:11.736Z,11.55
2018-09-24T17:02:51.628Z,11.52
2018-09-24T17:05:31.588Z,11.62
2018-09-24T17:08:12.142Z,11.65
2018-09-24T17:10:51.808Z,11.56
2018-09-24T17:13:31.709Z,11.39
2018-09-24T17:16:11.767Z,11.28
2018-09-24T17:18:52.085Z,11.32
2018-09-24T17:21:32.407Z,11.31
2018-09-24T17:24:13.196Z,11.24
2018-09-24T17:26:54.248Z,11.19
2018-09-24T17:29:34.745Z,10.97
2018-09-24T17:32:15.485Z,10.96
2018-09-24T17:34:56.268Z,10.99
2018-09-24T17:37:36.325Z,10.89
2018-09-24T17:40:23.592Z,10.78
2018-09-24T17:43:05.560Z,10.60
2018-09-24T17:45:46.085Z,10.49
2018-09-24T17:48:25.959Z,10.40
2018-09-24T17:51:07.094Z,10.33
2018-09-24T17:54:00.932Z,10.23
2018-09-24T17:56:40.747Z,10.05
2018-09-24T17:59:20.636Z,10.02
2018-09-24T18:02:00.426Z,10.03
2018-09-24T18:04:40.628Z,9.97
2018-09-24T18:07:33.376Z,9.95
2018-09-24T18:10:13.383Z,9.92
2018-09-24T18:12:53.136Z,9.89
2018-09-24T18:15:32.844Z,9.83
2018-09-24T18:18:13.157Z,9.76
2018-09-24T18:20:52.776Z,9.76
2018-09-24T18:23:33.020Z,9.69
2018-09-24T18:26:13.564Z,9.64
2018-09-24T18:28:53.508Z,9.57
2018-09-24T18:31:33.511Z,9.54
2018-09-24T18:34:13.531Z,9.49
2018-09-24T18:36:53.424Z,9.53
2018-09-24T18:39:33.212Z,9.55
2018-09-24T18:42:14.438Z,9.48
2018-09-24T18:45:05.478Z,9.32
2018-09-24T18:47:46.867Z,9.21
2018-09-24T18:50:26.628Z,9.18
2018-09-24T18:53:08.301Z,9.10
2018-09-24T18:55:48.059Z,9.09
2018-09-24T18:58:47.753Z,9.04
2018-09-24T19:01:27.707Z,8.95
2018-09-24T19:04:07.411Z,8.88
2018-09-24T19:06:47.464Z,8.81
2018-09-24T19:09:27.169Z,8.80
2018-09-24T19:12:07.088Z,8.74
2018-09-24T19:14:47.012Z,8.68
2018-09-24T19:17:26.954Z,8.67
2018-09-24T19:20:06.767Z,8.58
2018-09-24T19:22:46.981Z,8.54
2018-09-24T19:25:26.824Z,8.46
2018-09-24T19:28:06.751Z,8.41
2018-09-24T19:30:50.668Z,8.36
2018-09-24T19:33:30.661Z,8.35
2018-09-24T19:36:10.775Z,8.36
2018-09-24T19:38:51.141Z,8.28
2018-09-24T19:41:30.799Z,8.30
2018-09-24T19:44:10.533Z,8.30
2018-09-24T19:46:50.772Z,8.26
2018-09-24T19:49:30.538Z,8.27
2018-09-24T19:52:10.959Z,8.30
2018-09-24T19:54:51.120Z,8.30
2018-09-24T19:57:31.092Z,8.29
2018-09-24T20:00:11.158Z,8.27
2018-09-24T20:02:50.980Z,8.25
2018-09-24T20:08:38.206Z,8.21
2018-09-24T20:11:18.402Z,8.09
2018-09-24T20:14:10.015Z,8.11
2018-09-24T20:16:50.177Z,8.08
2018-09-24T20:19:30.457Z,8.05
2018-09-24T20:22:12.490Z,8.04
2018-09-24T20:24:52.321Z,8.03
2018-09-24T20:27:33.120Z,8.03
2018-09-24T20:30:12.812Z,7.96
2018-09-24T20:32:52.596Z,7.96
2018-09-24T20:35:32.479Z,7.92
2018-09-24T20:38:13.110Z,7.92
2018-09-24T20:40:53.129Z,7.85
2018-09-24T20:43:32.839Z,7.81
2018-09-24T20:46:23.848Z,7.76
2018-09-24T20:49:03.830Z,7.75
2018-09-24T20:51:43.739Z,7.73
2018-09-24T20:54:23.600Z,7.71
2018-09-24T20:57:03.292Z,7.71
2018-09-24T20:59:43.204Z,7.73
2018-09-24T21:02:23.529Z,7.66
2018-09-24T21:05:03.660Z,7.60
2018-09-24T21:07:43.596Z,7.60
2018-09-24T21:10:23.292Z,7.58
2018-09-24T21:13:03.027Z,7.55
2018-09-24T21:15:43.080Z,7.47
2018-09-24T21:18:22.993Z,7.43
2018-09-24T21:21:03.078Z,7.37
2018-09-24T21:23:42.819Z,7.40
2018-09-24T21:26:22.540Z,7.34
2018-09-24T21:29:02.181Z,7.31
2018-09-24T21:31:42.616Z,7.28
2018-09-24T21:34:22.408Z,7.23
2018-09-24T21:37:02.271Z,7.24
2018-09-24T21:39:42.158Z,7.24
2018-09-24T21:42:22.264Z,7.23
2018-09-24T21:45:01.965Z,7.14
2018-09-24T21:47:41.969Z,7.11
2018-09-24T21:50:22.073Z,7.06
2018-09-24T21:53:01.912Z,7.03
2018-09-24T21:55:41.700Z,6.97
2018-09-24T21:58:21.401Z,6.95
2018-09-24T22:01:01.501Z,6.95
2018-09-24T22:03:41.390Z,6.96
2018-09-24T22:06:21.248Z,6.99
2018-09-24T22:09:00.983Z,6.95
2018-09-24T22:11:40.975Z,6.94
2018-09-24T22:14:28.647Z,6.92
2018-09-24T22:17:08.581Z,6.93
2018-09-24T22:19:48.788Z,6.97
2018-09-24T22:22:28.561Z,6.94
2018-09-24T22:25:09.156Z,6.91
2018-09-24T22:27:49.269Z,6.97
2018-09-24T22:30:29.108Z,6.95
2018-09-24T22:33:09.044Z,6.92
2018-09-24T22:35:48.848Z,6.88
2018-09-24T22:38:29.257Z,6.93
2018-09-24T22:41:09.286Z,6.96
2018-09-24T22:43:49.231Z,6.89
2018-09-24T22:46:29.136Z,6.88
2018-09-24T22:49:09.640Z,6.88
2018-09-24T22:51:49.840Z,6.86
2018-09-24T22:54:29.757Z,6.85
2018-09-24T22:57:10.265Z,6.84
2018-09-24T22:59:50.580Z,6.82
2018-09-24T23:02:30.701Z,6.79
2018-09-24T23:05:10.885Z,6.80
2018-09-24T23:07:50.801Z,6.79
2018-09-24T23:10:30.907Z,6.75
2018-09-24T23:13:11.516Z,6.73
2018-09-24T23:15:51.360Z,6.68
2018-09-24T23:18:31.140Z,6.71
2018-09-24T23:21:11.059Z,6.67
2018-09-24T23:23:51.165Z,6.70
2018-09-24T23:26:31.568Z,6.67
2018-09-24T23:29:11.641Z,6.56
2018-09-24T23:31:52.000Z,6.60
2018-09-24T23:34:32.329Z,6.59
2018-09-24T23:37:12.164Z,6.60
2018-09-24T23:39:52.096Z,6.62
2018-09-24T23:42:32.033Z,6.53
2018-09-24T23:45:12.648Z,6.54
2018-09-24T23:47:52.908Z,6.52
2018-09-24T23:50:33.178Z,6.53
2018-09-24T23:53:13.162Z,6.54
2018-09-24T23:55:53.222Z,6.59
2018-09-24T23:58:33.318Z,6.54
